Litang, China
Current Conditions -  °F | °C
As of 10:00 AM on Monday 29 Dec 2014 (Local Time) from ZUUU Reporting Station
Moderate Fog Moderate Fog  
Wind Chill: 37°   Ceiling: Unl
Heat Index: 41°   Visibility: 0.5mi
Dew Point: 37°   Wind: 7mph
Humidity: 87%   Direction: 50°NE
Pressure: 30.24"   Gusts: NA
Location:  30°N, 100.27°E
Report Text: ZUUU 290200Z 05003MPS 010V090 0800R02L/1100V1300NR02R/0900V1000N FG SCT003 05/03 Q1024 BECMGTL0300 1500
Loading
Personal Weather Stations






























Interactive Weather Map New forecast layout! Learn more

10-Day Weather Forecast

Advertisements
Track Severe Weather on mobile